DW8626 Madrid ES current weather conditions

sailwx.info

Wind from 203

Air temperature 21.1° C
Dewpoint 12.0° C

Last reported at 2017-Jul-24 05:59 UTC.
Time now 2017-Jul-24 06:24 UTC

Location: N 40°29' W 003°43'.
View on Google Maps.

See reports from other nearby stations

  
Tides and Currents Weather Stations Pressure Air Temp Water Temp Dewpoint Dewpoint Depression Visibility Wind Speed Wind Dir Waves Ship Positions
date/time (UTC)wind fromknots sea level pressurealtimeterstation pressurevisibilityair tempwater tempwave heightnotes
2017-Jul-24 05:59 203 21.1
2017-Jul-24 05:29 201 0 gusting 3 20.6
2017-Jul-24 04:59 256 21.1
2017-Jul-24 04:29 239 21.7
2017-Jul-24 03:59 349 21.7
2017-Jul-24 03:29 284 22.2
2017-Jul-24 02:59 219 22.8
2017-Jul-24 02:30 229 23.3
2017-Jul-24 01:59 261 23.3
2017-Jul-24 01:29 254 0 gusting 3 24.4
2017-Jul-24 01:00 336 25.0
2017-Jul-24 00:30 256 0 gusting 3 25.0
2017-Jul-23 23:59 291 25.0
2017-Jul-23 23:29 293 6 gusting 10 25.6
2017-Jul-23 22:59 026 26.1
2017-Jul-23 22:29 027 26.1
2017-Jul-23 21:59 030 2 gusting 4 26.1
2017-Jul-23 21:29 358 26.7
2017-Jul-23 20:59 006 27.2
2017-Jul-23 20:29 338 1 gusting 6 28.3
2017-Jul-23 20:00 291 2 gusting 6 28.9
2017-Jul-23 19:30 322 0 gusting 6 29.4
2017-Jul-23 19:00 291 6 gusting 13 30.6
2017-Jul-23 18:30 340 2 gusting 12 31.1
2017-Jul-23 17:59 300 3 gusting 10 31.7
2017-Jul-23 17:29 285 7 gusting 15 31.7
2017-Jul-23 16:59 217 3 gusting 13 32.2
2017-Jul-23 16:29 233 7 gusting 11 32.2
2017-Jul-23 15:59 170 6 gusting 14 32.2
2017-Jul-23 15:29 239 8 gusting 13 31.7
2017-Jul-23 14:59 231 6 gusting 11 32.2
2017-Jul-23 14:29 194 10 gusting 16 31.7
2017-Jul-23 13:59 229 0 gusting 7 32.2
2017-Jul-23 13:30 219 6 gusting 14 31.7
2017-Jul-23 13:00 203 3 gusting 8 31.7
2017-Jul-23 12:30 249 6 gusting 9 31.1
2017-Jul-23 11:59 334 2 gusting 8 30.6
2017-Jul-23 11:29 190 4 gusting 11 30.6
2017-Jul-23 10:59 293 1 gusting 8 30.0
2017-Jul-23 10:29 112 0 gusting 4 30.6
2017-Jul-23 09:59 224 30.0
2017-Jul-23 09:29 094 27.8
2017-Jul-23 08:59 057 27.8
2017-Jul-23 08:30 067 26.7
2017-Jul-23 07:59 103 0 gusting 7 25.0
2017-Jul-23 07:30 013 24.4
2017-Jul-23 07:00 026 4 gusting 7 22.8
2017-Jul-23 06:30 050 3 gusting 7 21.7
2017-Jul-23 05:59 023 5 gusting 6 21.1
2017-Jul-23 05:29 009 5 gusting 8 20.6
2017-Jul-23 04:59 030 5 gusting 6 20.6
2017-Jul-23 04:29 026 6 gusting 8 21.1
2017-Jul-23 03:59 019 4 gusting 6 21.1
2017-Jul-23 03:29 030 3 gusting 4 21.7
2017-Jul-23 02:59 360 4 gusting 7 22.2
2017-Jul-23 02:29 023 5 gusting 7 22.8
2017-Jul-23 01:59 032 2 gusting 4 22.8
2017-Jul-23 01:30 026 22.8
2017-Jul-23 01:00 043 2 gusting 3 23.9
2017-Jul-23 00:30 030 23.9
2017-Jul-22 23:59 106 24.4
2017-Jul-22 23:29 027 5 gusting 6 25.0
2017-Jul-22 22:59 034 4 gusting 6 25.0
2017-Jul-22 22:29 354 25.0
2017-Jul-22 21:59 235 26.1
2017-Jul-22 21:29 255 0 gusting 5 26.7
2017-Jul-22 20:59 212 27.2
2017-Jul-22 20:29 217 1 gusting 3 27.8
2017-Jul-22 19:59 246 3 gusting 6 28.3
2017-Jul-22 19:29 203 0 gusting 5 29.4
2017-Jul-22 18:59 200 2 gusting 9 30.0
2017-Jul-22 18:30 219 5 gusting 8 30.6
2017-Jul-22 18:00 239 6 gusting 11 31.1
2017-Jul-22 17:30 222 4 gusting 13 30.6
2017-Jul-22 16:59 187 4 gusting 12 30.6
2017-Jul-22 16:29 200 8 gusting 14 30.6
2017-Jul-22 15:59 245 3 gusting 13 30.0
2017-Jul-22 15:29 253 8 gusting 17 30.6
2017-Jul-22 14:59 257 6 gusting 11 30.0
2017-Jul-22 14:29 276 2 gusting 10 30.6
2017-Jul-22 13:59 266 10 gusting 16 29.4
2017-Jul-22 13:29 194 7 gusting 14 28.9
2017-Jul-22 13:00 205 2 gusting 8 30.0
2017-Jul-22 12:30 224 6 gusting 13 28.9
2017-Jul-22 12:00 219 6 gusting 17 28.9
2017-Jul-22 11:30 208 6 gusting 12 28.3
2017-Jul-22 10:59 293 6 gusting 12 27.8
2017-Jul-22 10:29 252 27.8
2017-Jul-22 09:59 260 27.2
2017-Jul-22 09:29 115 27.2
2017-Jul-22 08:59 226 26.1
2017-Jul-22 08:29 083 24.4
2017-Jul-22 07:59 087 23.3
2017-Jul-22 07:29 070 1 gusting 4 22.2
2017-Jul-22 06:59 043 3 gusting 6 21.1
2017-Jul-22 06:29 036 20.6